Time;durP1;ratioP1;P1;durP2;ratioP2;P2;SDS_P1;SDS_P2;PMS_P1;PMS_P2;Temp;Humidity;BMP_temperature;BMP_pressure;BME280_temperature;BME280_humidity;BME280_pressure;Samples;Min_cycle;Max_cycle;Signal;HPM_P1;HPM_P2
2022/10/22 00:01:11;;;;;;;9.60;9.40;;;14.60;1.00;;;;;;5088378;28;21289;-81
2022/10/22 00:03:39;;;;;;;9.90;9.60;;;14.60;1.00;;;;;;5088004;28;20497;-81
2022/10/22 00:06:07;;;;;;;9.67;9.47;;;14.50;1.00;;;;;;5086512;28;20535;-81
2022/10/22 00:08:35;;;;;;;10.00;9.73;;;14.60;1.00;;;;;;5082999;28;20452;-82
2022/10/22 00:11:09;;;;;;;9.63;9.33;;;14.50;1.00;;;;;;5086479;28;20469;-81
2022/10/22 00:13:39;;;;;;;9.40;9.30;;;14.50;1.00;;;;;;5087084;28;21005;-81
2022/10/22 00:16:07;;;;;;;8.93;8.83;;;14.50;1.00;;;;;;5090841;28;20477;-81
2022/10/22 00:18:35;;;;;;;9.40;9.10;;;14.50;1.00;;;;;;5084019;28;20475;-82
2022/10/22 00:21:04;;;;;;;9.60;9.40;;;14.40;1.00;;;;;;5089267;28;20478;-83
2022/10/22 00:23:33;;;;;;;9.97;9.77;;;14.50;1.00;;;;;;5091217;28;20453;-81
2022/10/22 00:26:01;;;;;;;9.60;9.40;;;14.50;1.00;;;;;;5090583;28;20557;-82
2022/10/22 00:28:29;;;;;;;9.30;9.10;;;14.50;1.00;;;;;;5088673;28;20501;-81
2022/10/22 00:31:00;;;;;;;9.20;9.00;;;14.50;1.00;;;;;;5084858;28;20514;-80
2022/10/22 00:33:29;;;;;;;9.20;9.00;;;14.50;1.00;;;;;;5085400;28;20492;-81
2022/10/22 00:35:57;;;;;;;9.40;9.20;;;14.50;1.00;;;;;;5084125;28;20484;-81
2022/10/22 00:38:25;;;;;;;9.20;9.10;;;14.60;1.00;;;;;;5090660;28;20493;-81
2022/10/22 00:40:53;;;;;;;9.53;9.30;;;14.50;1.00;;;;;;5087611;28;21883;-81
2022/10/22 00:43:23;;;;;;;9.17;9.07;;;14.50;1.00;;;;;;5084462;28;20484;-82
2022/10/22 00:45:51;;;;;;;9.30;9.00;;;14.60;1.00;;;;;;5085614;28;20448;-81
2022/10/22 00:48:23;;;;;;;9.40;9.20;;;14.50;1.00;;;;;;5087351;28;20808;-81
2022/10/22 00:50:55;;;;;;;9.70;9.50;;;14.50;1.00;;;;;;5085299;28;20491;-80
2022/10/22 00:53:28;;;;;;;9.40;9.20;;;14.60;1.00;;;;;;5085379;28;20553;-82
2022/10/22 00:55:57;;;;;;;9.73;9.53;;;14.50;1.00;;;;;;5085998;28;20477;-81
2022/10/22 00:58:27;;;;;;;9.70;9.50;;;14.60;1.00;;;;;;5084666;28;20457;-82
2022/10/22 01:00:57;;;;;;;9.60;9.40;;;14.60;1.00;;;;;;5087868;28;20469;-82
2022/10/22 01:03:26;;;;;;;10.20;10.00;;;14.60;1.00;;;;;;5083782;28;20452;-82
2022/10/22 01:05:57;;;;;;;9.87;9.57;;;14.50;1.00;;;;;;5083321;28;20452;-81
2022/10/22 01:08:30;;;;;;;9.90;9.60;;;14.60;1.00;;;;;;5087025;28;20494;-82
2022/10/22 01:11:10;;;;;;;9.60;9.40;;;14.50;1.00;;;;;;5084826;28;20465;-81
2022/10/22 01:13:49;;;;;;;9.70;9.40;;;14.60;1.00;;;;;;5085594;28;20504;-83
2022/10/22 01:16:25;;;;;;;9.60;9.40;;;14.60;1.00;;;;;;5088326;28;20464;-81
2022/10/22 01:19:11;;;;;;;9.73;9.53;;;14.50;1.00;;;;;;5085472;28;20459;-83
2022/10/22 01:21:44;;;;;;;9.63;9.33;;;14.50;1.00;;;;;;5087116;28;20503;-82
2022/10/22 01:24:34;;;;;;;9.63;9.43;;;14.40;1.00;;;;;;5093837;28;20457;-82
2022/10/22 01:27:15;;;;;;;9.30;9.10;;;14.30;8.50;;;;;;5086584;28;20477;-81
2022/10/22 01:29:48;;;;;;;9.57;9.23;;;14.40;1.00;;;;;;5091790;28;20458;-81
2022/10/22 01:32:19;;;;;;;9.50;9.30;;;14.10;1.00;;;;;;5091168;28;20458;-80
2022/10/22 01:34:52;;;;;;;9.80;9.60;;;14.20;19.00;;;;;;5083937;28;20456;-81
2022/10/22 01:37:23;;;;;;;9.20;9.00;;;14.20;15.20;;;;;;5089879;28;20500;-84
2022/10/22 01:39:53;;;;;;;9.97;9.67;;;14.20;3.90;;;;;;5081168;28;20456;-81
2022/10/22 01:42:21;;;;;;;10.00;9.70;;;14.20;9.30;;;;;;5091145;28;20453;-85
2022/10/22 01:44:51;;;;;;;9.80;9.50;;;14.20;15.30;;;;;;5086002;28;20448;-82
2022/10/22 01:47:31;;;;;;;9.43;9.20;;;14.30;16.40;;;;;;5083781;28;20523;-82
2022/10/22 01:50:26;;;;;;;9.53;9.23;;;14.30;9.90;;;;;;5081956;28;20547;-80
2022/10/22 01:53:13;;;;;;;9.90;9.70;;;14.20;11.20;;;;;;5087071;28;20452;-80
2022/10/22 01:55:47;;;;;;;9.40;9.20;;;14.30;3.10;;;;;;5084126;28;20449;-80
2022/10/22 01:58:25;;;;;;;9.40;9.20;;;14.30;4.40;;;;;;5086318;28;20480;-81
2022/10/22 02:01:00;;;;;;;9.70;9.50;;;14.30;1.00;;;;;;5091002;28;20916;-81
2022/10/22 02:03:35;;;;;;;9.40;9.20;;;14.30;6.10;;;;;;5081221;28;21163;-80
2022/10/22 02:06:07;;;;;;;10.20;9.90;;;14.20;19.90;;;;;;5090537;28;20983;-81
2022/10/22 02:08:36;;;;;;;10.30;10.00;;;14.30;17.80;;;;;;5080094;28;20471;-81
2022/10/22 02:11:06;;;;;;;9.80;9.60;;;14.30;12.20;;;;;;5090390;28;20865;-80
2022/10/22 02:13:37;;;;;;;10.80;10.50;;;14.40;4.60;;;;;;5085446;28;21193;-82
2022/10/22 02:16:09;;;;;;;10.23;9.80;;;14.40;1.00;;;;;;5087904;28;20448;-81
2022/10/22 02:18:42;;;;;;;10.23;9.93;;;14.30;1.00;;;;;;5084111;28;20457;-81
2022/10/22 02:21:11;;;;;;;10.20;10.00;;;14.30;1.00;;;;;;5080674;28;20484;-81
2022/10/22 02:23:40;;;;;;;10.00;9.80;;;14.20;4.30;;;;;;5088796;28;20464;-81
2022/10/22 02:26:14;;;;;;;9.97;9.77;;;14.20;8.80;;;;;;5089965;28;20445;-80
2022/10/22 02:28:49;;;;;;;10.40;10.20;;;14.30;4.50;;;;;;5077268;28;20449;-81
2022/10/22 02:31:22;;;;;;;10.20;10.00;;;14.30;1.00;;;;;;5079543;28;20463;-81
2022/10/22 02:33:54;;;;;;;9.73;9.60;;;14.40;1.00;;;;;;5087965;28;20449;-80
2022/10/22 02:36:24;;;;;;;9.80;9.60;;;14.40;1.00;;;;;;5085538;28;20445;-80
2022/10/22 02:38:54;;;;;;;10.00;9.70;;;14.30;5.80;;;;;;5090727;28;20868;-80
2022/10/22 02:41:22;;;;;;;9.60;9.30;;;14.30;4.80;;;;;;5093768;28;20499;-81
2022/10/22 02:43:53;;;;;;;9.60;9.40;;;14.20;13.80;;;;;;5093838;28;21046;-81
2022/10/22 02:46:24;;;;;;;10.03;9.80;;;14.30;7.40;;;;;;5081352;28;20479;-82
2022/10/22 02:48:52;;;;;;;10.00;9.70;;;14.30;1.00;;;;;;5084529;28;20454;-79
2022/10/22 02:51:20;;;;;;;9.70;9.50;;;14.20;1.00;;;;;;5090351;28;20525;-80
2022/10/22 02:53:48;;;;;;;10.10;9.70;;;14.30;1.00;;;;;;5090854;28;20520;-80
2022/10/22 02:56:16;;;;;;;9.40;9.10;;;14.30;1.00;;;;;;5092954;28;20970;-80
2022/10/22 02:58:44;;;;;;;9.40;9.30;;;14.30;1.00;;;;;;5087138;28;20480;-81
2022/10/22 03:01:12;;;;;;;9.40;9.30;;;14.20;1.00;;;;;;5085226;28;20472;-81
2022/10/22 03:03:44;;;;;;;10.33;10.13;;;14.30;1.00;;;;;;5089049;28;20457;-79
2022/10/22 03:06:12;;;;;;;10.00;9.80;;;14.30;1.00;;;;;;5093313;28;21155;-80
2022/10/22 03:08:41;;;;;;;9.50;9.40;;;14.30;1.00;;;;;;5088800;28;20987;-82
2022/10/22 03:11:09;;;;;;;10.10;9.90;;;14.30;1.00;;;;;;5089225;28;20462;-81
2022/10/22 03:13:38;;;;;;;9.90;9.70;;;14.30;1.00;;;;;;5084582;28;20439;-81
2022/10/22 03:16:06;;;;;;;9.80;9.60;;;14.30;1.00;;;;;;5103607;28;20841;-80
2022/10/22 03:18:35;;;;;;;10.27;10.07;;;14.40;1.00;;;;;;5085395;28;20481;-83
2022/10/22 03:21:11;;;;;;;9.70;9.50;;;14.40;1.00;;;;;;5085969;28;20476;-82
2022/10/22 03:23:40;;;;;;;10.20;10.00;;;14.40;1.00;;;;;;5084796;28;20515;-80
2022/10/22 03:26:10;;;;;;;10.10;9.90;;;14.40;1.00;;;;;;5090331;28;20444;-81
2022/10/22 03:28:40;;;;;;;10.20;10.00;;;14.40;1.00;;;;;;5092150;28;20453;-80
2022/10/22 03:31:08;;;;;;;9.67;9.47;;;14.30;1.00;;;;;;5092108;28;20560;-81
2022/10/22 03:33:36;;;;;;;9.80;9.60;;;14.40;1.00;;;;;;5080349;28;20452;-81
2022/10/22 03:36:06;;;;;;;9.90;9.80;;;14.40;1.00;;;;;;5093545;28;20486;-82
2022/10/22 03:38:35;;;;;;;10.17;9.97;;;14.50;1.00;;;;;;5088374;28;20480;-82
2022/10/22 03:41:03;;;;;;;9.90;9.70;;;14.50;1.00;;;;;;5085369;28;20481;-81
2022/10/22 03:43:31;;;;;;;10.07;9.70;;;14.40;1.00;;;;;;5084668;28;21050;-80
2022/10/22 03:46:00;;;;;;;10.00;9.90;;;14.40;1.00;;;;;;5094002;28;20453;-81
2022/10/22 03:48:28;;;;;;;9.97;9.47;;;14.20;1.00;;;;;;5080623;28;20448;-81
2022/10/22 03:50:56;;;;;;;9.70;9.50;;;14.20;1.00;;;;;;5088114;28;20543;-83
2022/10/22 03:53:25;;;;;;;9.90;9.70;;;14.20;1.00;;;;;;5086352;28;20480;-83
2022/10/22 03:55:53;;;;;;;9.80;9.50;;;14.20;1.00;;;;;;5089030;28;20475;-83
2022/10/22 03:58:21;;;;;;;9.83;9.47;;;14.20;1.00;;;;;;5084779;28;20476;-84
2022/10/22 04:00:49;;;;;;;9.80;9.60;;;14.10;12.40;;;;;;5084586;28;20472;-84
2022/10/22 04:03:18;;;;;;;10.00;9.50;;;14.00;16.10;;;;;;5087524;28;20513;-81
2022/10/22 04:05:46;;;;;;;10.00;9.77;;;14.00;11.40;;;;;;5085662;28;20456;-82
2022/10/22 04:08:14;;;;;;;9.50;9.30;;;14.00;18.70;;;;;;5088721;28;20459;-82
2022/10/22 04:10:51;;;;;;;9.63;9.43;;;14.00;15.80;;;;;;5083671;28;20516;-82
2022/10/22 04:13:19;;;;;;;10.23;9.83;;;14.00;20.40;;;;;;5081801;28;20506;-82
2022/10/22 04:15:48;;;;;;;10.10;9.80;;;14.00;16.90;;;;;;5085283;28;20459;-81
2022/10/22 04:18:16;;;;;;;9.70;9.50;;;14.00;9.70;;;;;;5085634;28;20477;-81
2022/10/22 04:20:44;;;;;;;9.60;9.50;;;14.00;12.10;;;;;;5084490;28;20474;-82
2022/10/22 04:23:13;;;;;;;10.17;9.90;;;14.10;4.50;;;;;;5085611;28;20520;-81
2022/10/22 04:25:42;;;;;;;10.90;10.47;;;14.00;8.40;;;;;;5085527;28;20576;-83
2022/10/22 04:28:10;;;;;;;9.67;9.47;;;13.90;6.70;;;;;;5082138;28;20432;-82
2022/10/22 04:30:38;;;;;;;9.80;9.60;;;14.00;9.60;;;;;;5087544;28;20468;-82
2022/10/22 04:33:06;;;;;;;9.50;9.30;;;14.00;1.00;;;;;;5088015;28;20483;-83
2022/10/22 04:35:39;;;;;;;10.13;9.87;;;13.90;6.50;;;;;;5083849;28;20456;-81
2022/10/22 04:38:07;;;;;;;10.10;9.90;;;14.00;1.00;;;;;;5089138;28;20475;-81
2022/10/22 04:40:35;;;;;;;9.30;9.20;;;14.10;1.00;;;;;;5081781;28;22194;-81
2022/10/22 04:43:05;;;;;;;9.93;9.53;;;14.00;1.00;;;;;;5084780;28;20484;-81
2022/10/22 04:45:33;;;;;;;10.03;9.60;;;13.90;2.90;;;;;;5085289;28;20561;-81
2022/10/22 04:48:01;;;;;;;9.70;9.50;;;13.90;2.90;;;;;;5085172;28;20464;-82
2022/10/22 04:50:29;;;;;;;9.73;9.50;;;14.00;1.00;;;;;;5079867;28;20566;-81
2022/10/22 04:52:57;;;;;;;9.70;9.50;;;14.00;1.00;;;;;;5083740;28;20898;-82
2022/10/22 04:55:25;;;;;;;9.90;9.60;;;13.90;1.00;;;;;;5086504;28;20484;-82
2022/10/22 04:57:53;;;;;;;9.90;9.60;;;14.10;1.00;;;;;;5086374;28;21219;-81
2022/10/22 05:00:23;;;;;;;9.90;9.70;;;14.00;1.00;;;;;;5086146;28;20490;-83
2022/10/22 05:02:51;;;;;;;10.87;10.13;;;13.90;1.00;;;;;;5083583;28;20883;-81
2022/10/22 05:05:19;;;;;;;9.70;9.50;;;13.90;9.70;;;;;;5080192;28;20534;-80
2022/10/22 05:07:47;;;;;;;10.10;9.90;;;14.10;50.60;;;;;;5080030;28;20515;-83
2022/10/22 05:10:15;;;;;;;10.20;10.00;;;14.00;4.30;;;;;;5081989;28;20443;-80
2022/10/22 05:12:43;;;;;;;10.70;10.40;;;13.90;1.00;;;;;;5088683;28;20993;-80
2022/10/22 05:15:12;;;;;;;10.00;9.80;;;14.00;1.00;;;;;;5082786;28;20456;-81
2022/10/22 05:17:41;;;;;;;10.23;10.03;;;14.00;1.00;;;;;;5082030;28;20503;-81
2022/10/22 05:20:10;;;;;;;10.00;9.63;;;14.00;1.00;;;;;;5085383;28;20527;-78
2022/10/22 05:22:38;;;;;;;10.00;9.70;;;14.00;1.00;;;;;;5083007;28;20493;-79
2022/10/22 05:25:07;;;;;;;9.90;9.70;;;14.00;1.00;;;;;;5088269;28;20505;-81
2022/10/22 05:27:35;;;;;;;10.23;10.03;;;14.00;1.00;;;;;;5079254;28;20500;-80
2022/10/22 05:30:06;;;;;;;9.97;9.70;;;14.10;1.00;;;;;;5079883;28;20449;-80
2022/10/22 05:32:35;;;;;;;11.00;10.60;;;14.10;1.00;;;;;;5082805;28;20510;-80
2022/10/22 05:35:05;;;;;;;10.20;10.00;;;14.00;1.00;;;;;;5085650;28;21030;-83
2022/10/22 05:37:33;;;;;;;9.80;9.60;;;14.00;1.00;;;;;;5079547;28;21210;-81
2022/10/22 05:40:01;;;;;;;10.07;9.70;;;14.00;1.00;;;;;;5082311;28;20677;-81
2022/10/22 05:42:49;;;;;;;9.50;9.37;;;14.00;1.00;;;;;;5084180;28;21484;-81
2022/10/22 05:45:17;;;;;;;9.77;9.47;;;14.00;1.00;;;;;;5079707;28;20456;-80
2022/10/22 05:47:45;;;;;;;9.70;9.50;;;14.10;1.00;;;;;;5083449;28;20527;-84
2022/10/22 05:50:15;;;;;;;9.50;9.40;;;14.00;1.00;;;;;;5075644;28;20449;-80
2022/10/22 05:52:43;;;;;;;9.40;9.20;;;14.10;1.00;;;;;;5089645;28;20447;-80
2022/10/22 05:55:11;;;;;;;9.70;9.50;;;14.10;1.00;;;;;;5090740;28;20440;-79
2022/10/22 05:57:42;;;;;;;9.83;9.43;;;14.00;1.00;;;;;;5080231;28;20436;-82
2022/10/22 06:00:11;;;;;;;9.67;9.47;;;13.90;1.00;;;;;;5083463;28;20470;-82
2022/10/22 06:02:43;;;;;;;9.70;9.50;;;13.90;1.00;;;;;;5084466;28;20460;-80
2022/10/22 06:05:12;;;;;;;10.40;10.10;;;13.90;1.00;;;;;;5082058;28;21017;-80
2022/10/22 06:07:41;;;;;;;9.80;9.50;;;13.80;1.00;;;;;;5078940;28;20450;-80
2022/10/22 06:10:15;;;;;;;9.73;9.60;;;13.80;1.00;;;;;;5080479;28;20448;-82
2022/10/22 06:12:43;;;;;;;9.30;9.00;;;13.80;1.00;;;;;;5085980;28;20609;-82
2022/10/22 06:15:13;;;;;;;9.90;9.50;;;13.90;1.00;;;;;;5088516;28;20466;-81
2022/10/22 06:17:41;;;;;;;9.70;9.50;;;13.90;1.00;;;;;;5089785;28;20500;-81
2022/10/22 06:20:10;;;;;;;9.73;9.50;;;14.00;1.00;;;;;;5090809;28;20484;-80
2022/10/22 06:22:38;;;;;;;9.90;9.70;;;14.10;1.00;;;;;;5089800;28;20451;-82
2022/10/22 06:25:09;;;;;;;9.60;9.30;;;14.10;1.00;;;;;;5085781;28;20510;-80
2022/10/22 06:27:38;;;;;;;9.30;9.00;;;14.10;1.00;;;;;;5088776;28;20452;-83
2022/10/22 06:30:07;;;;;;;9.37;9.20;;;14.10;1.00;;;;;;5087015;28;20543;-80
2022/10/22 06:32:35;;;;;;;9.87;9.70;;;14.20;1.00;;;;;;5090352;28;20446;-83
2022/10/22 06:35:03;;;;;;;9.67;9.47;;;14.20;1.00;;;;;;5087667;28;20502;-81
2022/10/22 06:37:31;;;;;;;10.00;9.60;;;14.30;1.00;;;;;;5089872;28;20458;-82
2022/10/22 06:40:00;;;;;;;10.30;10.00;;;14.30;1.00;;;;;;5082409;28;20512;-81
2022/10/22 06:42:29;;;;;;;10.80;10.33;;;14.30;1.00;;;;;;5089631;28;20530;-84
2022/10/22 06:44:57;;;;;;;10.03;9.80;;;14.40;1.00;;;;;;5084951;28;20472;-84
2022/10/22 06:47:25;;;;;;;11.37;10.87;;;14.40;1.00;;;;;;5093704;28;20547;-83
2022/10/22 06:49:53;;;;;;;11.23;10.80;;;14.40;1.00;;;;;;5086247;28;21397;-83
2022/10/22 06:52:22;;;;;;;11.50;11.20;;;14.50;1.00;;;;;;5090240;28;20541;-83
2022/10/22 06:54:50;;;;;;;10.80;10.50;;;14.50;1.00;;;;;;5091113;28;20951;-83
2022/10/22 06:57:18;;;;;;;10.30;10.10;;;14.60;1.00;;;;;;5087102;28;20464;-83
2022/10/22 06:59:48;;;;;;;10.63;10.30;;;14.50;1.00;;;;;;5090182;28;20488;-83
2022/10/22 07:02:16;;;;;;;10.43;10.10;;;14.50;1.00;;;;;;5094451;28;21175;-83
2022/10/22 07:04:45;;;;;;;10.70;10.50;;;14.40;1.00;;;;;;5081055;28;20480;-83
2022/10/22 07:07:15;;;;;;;10.43;10.23;;;14.40;1.00;;;;;;5092720;28;20452;-83
2022/10/22 07:09:46;;;;;;;10.47;10.27;;;14.30;1.00;;;;;;5092511;28;20520;-83
2022/10/22 07:12:15;;;;;;;10.40;10.20;;;14.20;1.00;;;;;;5085205;28;20482;-85
2022/10/22 07:14:43;;;;;;;10.27;9.97;;;14.10;12.60;;;;;;5091377;28;20459;-83
2022/10/22 07:17:12;;;;;;;10.87;10.57;;;14.20;13.70;;;;;;5088356;28;20468;-86
2022/10/22 07:19:40;;;;;;;10.90;10.70;;;14.20;6.30;;;;;;5087553;28;20479;-84
2022/10/22 07:22:09;;;;;;;10.90;10.67;;;14.20;7.10;;;;;;5093857;28;20474;-83
2022/10/22 07:24:37;;;;;;;11.10;10.80;;;14.20;4.20;;;;;;5092850;28;20455;-84
2022/10/22 07:27:05;;;;;;;11.10;10.87;;;14.20;15.20;;;;;;5084448;28;20472;-83
2022/10/22 07:29:37;;;;;;;11.20;10.90;;;14.30;8.90;;;;;;5086175;28;20448;-83
2022/10/22 07:32:06;;;;;;;11.17;10.77;;;14.40;6.50;;;;;;5087808;28;20543;-81
2022/10/22 07:34:36;;;;;;;10.87;10.67;;;14.40;1.20;;;;;;5089809;28;20457;-82
2022/10/22 07:37:07;;;;;;;11.40;11.10;;;14.30;13.40;;;;;;5092345;28;20464;-83
2022/10/22 07:39:35;;;;;;;11.13;10.90;;;14.40;10.70;;;;;;5083462;28;21065;-81
2022/10/22 07:42:03;;;;;;;11.50;11.30;;;14.50;7.90;;;;;;5092716;28;21018;-83
2022/10/22 07:44:31;;;;;;;11.90;11.70;;;14.60;1.00;;;;;;5093022;28;20904;-84
2022/10/22 07:46:59;;;;;;;12.10;11.90;;;14.60;1.00;;;;;;5081907;28;20465;-85
2022/10/22 07:49:28;;;;;;;12.43;12.03;;;14.60;1.00;;;;;;5080518;28;20442;-84
2022/10/22 07:51:57;;;;;;;12.60;12.20;;;14.60;1.00;;;;;;5085983;28;20482;-84
2022/10/22 07:54:25;;;;;;;12.43;12.13;;;14.70;1.00;;;;;;5087258;28;20872;-88
2022/10/22 07:56:53;;;;;;;12.60;12.30;;;14.70;1.00;;;;;;5087614;28;20674;-83
2022/10/22 07:59:21;;;;;;;12.50;12.23;;;14.80;1.00;;;;;;5086492;28;21012;-83
2022/10/22 08:01:49;;;;;;;13.17;12.57;;;14.90;1.00;;;;;;5089764;28;20481;-81
2022/10/22 08:04:18;;;;;;;12.87;12.67;;;15.10;1.00;;;;;;5086636;28;20451;-82
2022/10/22 08:06:46;;;;;;;12.97;12.57;;;15.10;1.00;;;;;;5086286;28;20446;-83
2022/10/22 08:09:16;;;;;;;12.77;12.47;;;15.20;1.00;;;;;;5088662;28;20952;-83
2022/10/22 08:11:44;;;;;;;12.90;12.60;;;15.20;1.00;;;;;;5087113;28;20464;-82
2022/10/22 08:14:12;;;;;;;14.20;13.80;;;15.20;1.00;;;;;;5087516;28;20445;-82
2022/10/22 08:16:40;;;;;;;14.10;13.80;;;16.00;1.00;;;;;;5085643;28;20476;-81
2022/10/22 08:19:08;;;;;;;13.93;13.60;;;16.90;99.90;;;;;;5089908;28;20988;-81
2022/10/22 08:21:36;;;;;;;15.20;14.80;;;16.80;99.90;;;;;;5085489;28;20898;-83
2022/10/22 08:24:05;;;;;;;15.13;14.73;;;17.00;99.90;;;;;;5081371;28;20450;-84
2022/10/22 08:26:40;;;;;;;15.00;14.50;;;17.10;1.00;;;;;;5084010;28;20496;-83
2022/10/22 08:29:08;;;;;;;14.70;14.30;;;17.10;1.00;;;;;;5089542;28;20457;-84
2022/10/22 08:31:36;;;;;;;15.60;15.00;;;17.10;1.00;;;;;;5079871;28;20467;-85
2022/10/22 08:34:07;;;;;;;16.20;15.60;;;17.40;99.90;;;;;;5079163;28;20532;-84
2022/10/22 08:36:35;;;;;;;14.93;14.60;;;17.70;99.90;;;;;;5085426;28;20541;-85
2022/10/22 08:39:03;;;;;;;15.90;15.40;;;18.10;2.50;;;;;;5085971;28;20501;-86
2022/10/22 08:41:36;;;;;;;16.00;15.53;;;18.80;99.90;;;;;;5083432;28;20500;-83
2022/10/22 08:44:37;;;;;;;16.20;15.70;;;20.70;1.00;;;;;;5082460;28;20458;-85
2022/10/22 08:47:27;;;;;;;15.90;15.30;;;20.80;99.90;;;;;;5085533;28;20457;-84
2022/10/22 08:49:56;;;;;;;15.73;15.23;;;21.60;9.00;;;;;;5080818;28;20446;-83
2022/10/22 08:52:24;;;;;;;15.83;15.20;;;21.70;1.00;;;;;;5087383;28;20486;-83
2022/10/22 08:54:54;;;;;;;14.60;14.20;;;20.90;1.00;;;;;;5081812;28;20450;-83
2022/10/22 08:57:45;;;;;;;15.00;14.63;;;20.80;5.60;;;;;;5091995;28;20487;-84
2022/10/22 09:00:22;;;;;;;14.97;14.53;;;20.90;5.20;;;;;;5090431;28;20473;-84
2022/10/22 09:03:02;;;;;;;14.73;14.33;;;21.30;1.00;;;;;;5091021;28;20523;-83
2022/10/22 09:05:39;;;;;;;14.13;13.83;;;22.00;1.00;;;;;;5089522;28;20463;-84
2022/10/22 09:08:11;;;;;;;13.90;13.60;;;22.50;1.00;;;;;;5091474;28;20480;-84
2022/10/22 09:10:45;;;;;;;13.20;12.90;;;23.00;1.00;;;;;;5081258;28;20466;-85
2022/10/22 09:13:18;;;;;;;12.80;12.50;;;23.70;1.00;;;;;;5085822;28;20449;-83
2022/10/22 09:15:51;;;;;;;12.60;12.20;;;25.20;99.90;;;;;;5086624;28;21272;-84
2022/10/22 09:18:29;;;;;;;10.83;10.63;;;26.30;99.90;;;;;;5085098;28;20462;-83
2022/10/22 09:21:02;;;;;;;9.83;9.63;;;27.10;99.90;;;;;;5090540;28;20484;-85
2022/10/22 09:23:36;;;;;;;9.97;9.77;;;27.40;99.90;;;;;;5079575;28;20449;-84
2022/10/22 09:26:13;;;;;;;7.50;7.30;;;27.60;99.90;;;;;;5080719;28;20459;-85
2022/10/22 09:28:41;;;;;;;7.07;6.83;;;27.50;99.90;;;;;;5081833;28;20481;-85
2022/10/22 09:31:13;;;;;;;6.33;6.20;;;27.50;99.90;;;;;;5088848;28;20474;-85
2022/10/22 09:33:43;;;;;;;5.90;5.70;;;27.00;99.90;;;;;;5082028;28;20447;-82
2022/10/22 09:36:15;;;;;;;6.03;5.77;;;26.60;99.90;;;;;;5085486;28;20998;-82
2022/10/22 09:38:47;;;;;;;5.70;5.50;;;26.30;99.90;;;;;;5085390;28;20488;-83
2022/10/22 09:41:16;;;;;;;5.43;5.27;;;26.10;99.90;;;;;;5083580;28;20502;-82
2022/10/22 09:43:47;;;;;;;8.13;7.83;;;25.80;99.90;;;;;;5084549;28;20500;-83
2022/10/22 09:46:18;;;;;;;7.67;7.57;;;26.10;99.90;;;;;;5086369;28;20477;-82
2022/10/22 09:48:50;;;;;;;7.10;7.00;;;26.20;99.90;;;;;;5081921;28;21231;-82
2022/10/22 09:51:21;;;;;;;7.40;6.70;;;26.10;99.90;;;;;;5080166;28;20474;-82
2022/10/22 09:53:57;;;;;;;5.77;5.63;;;26.50;99.90;;;;;;5089039;28;20478;-82
2022/10/22 09:56:27;;;;;;;5.68;5.38;;;27.10;99.90;;;;;;5080640;28;20459;-83
2022/10/22 09:58:57;;;;;;;5.90;5.70;;;27.50;99.90;;;;;;5083703;28;20196;-83
2022/10/22 10:01:28;;;;;;;5.63;5.53;;;27.80;99.90;;;;;;5084995;28;20521;-82
2022/10/22 10:04:03;;;;;;;5.73;5.63;;;28.00;99.90;;;;;;5078911;28;20462;-82
2022/10/22 10:06:39;;;;;;;4.70;4.60;;;28.70;99.90;;;;;;5079507;28;20445;-82
2022/10/22 10:09:15;;;;;;;4.00;3.70;;;29.10;99.90;;;;;;5085219;28;20453;-82
2022/10/22 10:11:48;;;;;;;3.60;3.50;;;29.70;99.90;;;;;;5090083;28;20584;-81
2022/10/22 10:14:24;;;;;;;3.27;3.17;;;30.60;99.90;;;;;;5088772;28;20568;-82
2022/10/22 10:16:58;;;;;;;3.70;3.50;;;31.60;99.90;;;;;;5088314;28;20461;-83
2022/10/22 10:19:38;;;;;;;3.10;2.57;;;33.50;99.90;;;;;;5087739;28;20502;-82
2022/10/22 10:22:17;;;;;;;2.40;2.20;;;34.40;99.90;;;;;;5082722;28;20560;-82
2022/10/22 10:25:00;;;;;;;2.40;2.30;;;34.80;99.90;;;;;;5088658;28;20489;-83
2022/10/22 10:27:32;;;;;;;3.00;1.90;;;35.30;99.90;;;;;;5090745;28;20477;-80
2022/10/22 10:30:05;;;;;;;1.90;1.80;;;35.70;99.90;;;;;;5086844;28;20446;-82
2022/10/22 10:33:12;;;;;;;1.53;1.43;;;36.10;99.90;;;;;;5080446;28;20486;-83
2022/10/22 10:35:51;;;;;;;1.30;1.20;;;36.60;99.90;;;;;;5090301;28;20541;-83
2022/10/22 10:38:34;;;;;;;1.40;1.30;;;36.40;99.90;;;;;;5083791;28;20518;-83
2022/10/22 10:41:18;;;;;;;1.17;1.07;;;36.60;99.90;;;;;;5085198;28;20478;-83
2022/10/22 10:44:16;;;;;;;1.80;1.30;;;36.80;99.90;;;;;;5088160;28;20482;-81
2022/10/22 10:46:54;;;;;;;2.20;1.70;;;37.40;99.90;;;;;;5082478;28;20510;-83
2022/10/22 10:49:25;;;;;;;1.50;1.40;;;37.70;99.90;;;;;;5087452;28;20478;-84
2022/10/22 10:52:03;;;;;;;1.30;1.20;;;36.90;99.90;;;;;;5089616;28;20461;-83
2022/10/22 10:54:45;;;;;;;1.53;1.23;;;37.60;99.90;;;;;;5090832;28;21722;-82
2022/10/22 10:57:25;;;;;;;1.40;1.30;;;37.70;99.90;;;;;;5091648;28;20437;-81
2022/10/22 11:00:02;;;;;;;1.87;1.23;;;38.00;99.90;;;;;;5085447;28;20512;-81
2022/10/22 11:03:05;;;;;;;1.70;1.60;;;37.30;99.90;;;;;;5093442;28;20461;-81
2022/10/22 11:05:41;;;;;;;1.53;1.33;;;37.10;99.90;;;;;;5084233;28;20511;-82
2022/10/22 11:08:15;;;;;;;2.43;1.27;;;34.50;99.90;;;;;;5090969;28;20502;-81
2022/10/22 11:10:46;;;;;;;1.43;1.33;;;34.90;99.90;;;;;;5083497;28;20469;-82
2022/10/22 11:13:22;;;;;;;2.65;1.20;;;31.00;99.90;;;;;;5092871;28;20464;-81
2022/10/22 11:15:55;;;;;;;1.43;1.20;;;28.50;99.90;;;;;;5087054;28;20729;-81
2022/10/22 11:18:29;;;;;;;1.77;1.20;;;26.60;99.90;;;;;;5078696;28;20497;-80
2022/10/22 11:21:08;;;;;;;1.30;1.20;;;25.70;99.90;;;;;;5081981;28;21021;-82
2022/10/22 11:23:44;;;;;;;1.80;1.50;;;25.00;99.90;;;;;;5080940;28;20441;-81
2022/10/22 11:26:19;;;;;;;1.93;1.50;;;24.80;99.90;;;;;;5086703;28;20452;-81
2022/10/22 11:28:52;;;;;;;1.27;1.17;;;24.40;99.90;;;;;;5088243;28;20502;-82
2022/10/22 11:31:24;;;;;;;1.30;1.20;;;23.80;99.90;;;;;;5107236;28;20473;-82
2022/10/22 11:33:54;;;;;;;2.03;1.30;;;23.70;99.90;;;;;;5090473;28;20477;-82
2022/10/22 11:36:38;;;;;;;2.70;1.43;;;23.40;99.90;;;;;;5088951;28;20448;-81
2022/10/22 11:39:27;;;;;;;2.13;1.37;;;23.10;99.90;;;;;;5081546;28;21099;-82
2022/10/22 11:41:57;;;;;;;1.17;1.10;;;23.20;99.90;;;;;;5086195;28;20486;-83
2022/10/22 11:44:27;;;;;;;1.43;1.10;;;23.10;99.90;;;;;;5088651;28;20502;-81
2022/10/22 11:46:57;;;;;;;3.03;1.20;;;23.10;99.90;;;;;;5091785;28;20489;-82
2022/10/22 11:49:27;;;;;;;1.30;1.20;;;23.10;99.90;;;;;;5089518;28;20445;-83
2022/10/22 11:52:24;;;;;;;1.63;1.10;;;23.30;99.90;;;;;;5091353;28;20465;-81
2022/10/22 11:54:57;;;;;;;1.73;1.20;;;23.50;99.90;;;;;;5082485;28;20512;-81
2022/10/22 11:57:36;;;;;;;5.13;1.20;;;23.60;99.90;;;;;;5092348;28;20446;-81
2022/10/22 12:00:30;;;;;;;3.07;1.30;;;24.00;99.90;;;;;;5087338;28;20530;-83
2022/10/22 12:03:04;;;;;;;1.87;1.10;;;23.90;99.90;;;;;;5085033;28;20536;-82
2022/10/22 12:05:36;;;;;;;1.67;1.20;;;24.10;99.90;;;;;;5093080;28;20471;-82
2022/10/22 12:08:32;;;;;;;1.50;1.40;;;23.60;99.90;;;;;;5083842;28;20458;-82
2022/10/22 12:11:12;;;;;;;1.30;1.10;;;23.70;99.90;;;;;;5052014;28;20577;-85
2022/10/22 12:14:16;;;;;;;3.40;1.03;;;24.00;99.90;;;;;;5087542;28;20439;-86
2022/10/22 12:16:46;;;;;;;1.20;1.03;;;24.10;99.90;;;;;;5049018;28;20457;-84
2022/10/22 12:19:30;;;;;;;1.30;1.20;;;23.90;99.90;;;;;;5090422;28;20438;-85
2022/10/22 12:22:01;;;;;;;3.17;1.30;;;23.60;99.90;;;;;;5091316;28;21002;-85
2022/10/22 12:24:34;;;;;;;2.07;1.20;;;23.50;99.90;;;;;;5090581;28;20442;-85
2022/10/22 12:27:06;;;;;;;1.90;1.00;;;23.30;99.90;;;;;;5086984;28;20433;-83
2022/10/22 12:29:35;;;;;;;3.57;1.23;;;23.00;99.90;;;;;;5079437;28;20503;-83
2022/10/22 12:32:06;;;;;;;1.60;1.20;;;22.70;99.90;;;;;;5086427;28;20483;-85
2022/10/22 12:34:34;;;;;;;1.30;1.20;;;22.50;99.90;;;;;;5086881;28;20953;-87
2022/10/22 12:37:05;;;;;;;3.23;1.30;;;22.30;99.90;;;;;;5088162;28;20455;-85
2022/10/22 12:39:34;;;;;;;1.20;1.10;;;22.30;99.90;;;;;;5080999;28;21037;-86
2022/10/22 12:42:04;;;;;;;3.03;1.17;;;22.20;99.90;;;;;;5082073;28;21033;-86
2022/10/22 12:44:33;;;;;;;2.27;1.80;;;22.00;99.90;;;;;;5082487;28;20461;-86
2022/10/22 12:47:01;;;;;;;1.40;1.30;;;22.00;99.90;;;;;;5080609;28;22195;-86
2022/10/22 12:49:36;;;;;;;3.07;1.20;;;22.30;99.90;;;;;;5089665;28;20439;-87
2022/10/22 12:52:07;;;;;;;1.73;1.40;;;22.30;99.90;;;;;;5086198;28;20558;-77
2022/10/22 12:54:40;;;;;;;3.57;1.40;;;22.50;99.90;;;;;;5083777;28;20472;-87
2022/10/22 12:57:14;;;;;;;1.13;1.03;;;22.60;99.90;;;;;;5087396;28;20470;-86
2022/10/22 12:59:45;;;;;;;2.00;1.17;;;22.60;99.90;;;;;;5086015;28;20545;-86
2022/10/22 13:02:21;;;;;;;1.90;1.30;;;22.80;99.90;;;;;;5075902;28;21300;-86
2022/10/22 13:05:22;;;;;;;1.67;1.50;;;22.60;99.90;;;;;;5084484;28;20455;-86
2022/10/22 13:07:53;;;;;;;2.87;1.53;;;22.80;99.90;;;;;;5082121;28;20455;-86
2022/10/22 13:10:26;;;;;;;1.57;1.20;;;22.80;99.90;;;;;;5082977;28;20478;-87